createdAt,value
2022-08-05T00:02:07.231Z,71.59
2022-08-05T00:04:37.814Z,71.48
2022-08-05T00:07:21.712Z,71.90
2022-08-05T00:09:59.152Z,72.18
2022-08-05T00:12:28.618Z,72.45
2022-08-05T00:14:59.538Z,72.85
2022-08-05T00:17:49.380Z,72.29
2022-08-05T00:20:20.555Z,72.37
2022-08-05T00:22:59.641Z,72.51
2022-08-05T00:25:34.595Z,73.04
2022-08-05T00:28:15.819Z,72.64
2022-08-05T00:30:53.633Z,72.75
2022-08-05T00:34:56.488Z,72.68
2022-08-05T00:36:16.359Z,73.30
2022-08-05T00:39:02.517Z,73.10
2022-08-05T00:41:51.622Z,73.26
2022-08-05T00:44:23.495Z,73.41
2022-08-05T00:47:04.155Z,73.72
2022-08-05T00:52:54.995Z,73.84
2022-08-05T00:55:42.383Z,74.04
2022-08-05T00:58:12.761Z,73.90
2022-08-05T01:00:43.251Z,73.83
2022-08-05T01:03:22.686Z,74.44
2022-08-05T01:05:54.629Z,74.70
2022-08-05T01:08:41.929Z,74.46
2022-08-05T01:11:21.811Z,74.42
2022-08-05T01:14:08.744Z,74.91
2022-08-05T01:16:48.725Z,74.86
2022-08-05T01:20:01.023Z,75.33
2022-08-05T01:22:42.221Z,74.78
2022-08-05T01:26:05.428Z,74.87
2022-08-05T01:28:43.007Z,75.01
2022-08-05T01:31:18.926Z,75.27
2022-08-05T01:33:55.684Z,75.20
2022-08-05T01:36:30.979Z,75.56
2022-08-05T01:39:01.676Z,75.36
2022-08-05T01:41:37.564Z,76.04
2022-08-05T01:44:10.195Z,75.39
2022-08-05T01:46:46.485Z,75.46
2022-08-05T01:49:23.777Z,76.11
2022-08-05T01:51:59.443Z,75.85
2022-08-05T01:54:46.146Z,76.13
2022-08-05T01:58:12.460Z,76.10
2022-08-05T02:00:15.079Z,75.67
2022-08-05T02:02:54.517Z,75.40
2022-08-05T02:05:34.170Z,75.75
2022-08-05T02:08:04.500Z,75.62
2022-08-05T02:10:40.769Z,76.03
2022-08-05T02:13:17.975Z,76.03
2022-08-05T02:15:57.078Z,76.45
2022-08-05T02:18:35.150Z,76.21
2022-08-05T02:21:15.072Z,75.61
2022-08-05T02:23:48.391Z,75.63
2022-08-05T02:26:37.554Z,75.55
2022-08-05T02:29:21.507Z,75.86
2022-08-05T02:31:57.377Z,76.34
2022-08-05T02:34:31.097Z,75.82
2022-08-05T02:37:11.035Z,76.51
2022-08-05T02:39:42.919Z,76.62
2022-08-05T02:42:25.898Z,76.52
2022-08-05T02:44:59.389Z,76.67
2022-08-05T02:47:58.566Z,76.53
2022-08-05T02:50:27.329Z,76.30
2022-08-05T02:52:57.792Z,76.10
2022-08-05T02:55:54.923Z,75.96
2022-08-05T02:58:20.384Z,76.56
2022-08-05T03:00:51.501Z,76.83
2022-08-05T03:03:23.737Z,76.90
2022-08-05T03:06:56.031Z,76.99
2022-08-05T03:08:44.507Z,77.01
2022-08-05T03:11:56.429Z,77.29
2022-08-05T03:14:13.367Z,77.05
2022-08-05T03:16:44.064Z,77.41
2022-08-05T03:19:29.469Z,77.50
2022-08-05T03:22:05.057Z,77.13
2022-08-05T03:24:49.573Z,77.73
2022-08-05T03:27:21.998Z,77.57
2022-08-05T03:30:08.111Z,77.51
2022-08-05T03:32:39.452Z,77.42
2022-08-05T03:35:11.449Z,77.49
2022-08-05T03:37:46.785Z,77.62
2022-08-05T03:40:31.453Z,77.59
2022-08-05T03:43:58.541Z,77.36
2022-08-05T03:45:58.192Z,77.27
2022-08-05T03:48:29.426Z,77.26
2022-08-05T03:55:34.229Z,77.53
2022-08-05T03:57:16.382Z,77.30
2022-08-05T03:59:54.450Z,77.11
2022-08-05T04:02:37.777Z,77.33
2022-08-05T04:05:11.634Z,77.33
2022-08-05T04:07:51.378Z,77.12
2022-08-05T04:10:37.102Z,77.03
2022-08-05T04:13:08.938Z,76.97
2022-08-05T04:15:38.591Z,77.45
2022-08-05T04:18:25.854Z,77.48
2022-08-05T04:20:57.272Z,77.54
2022-08-05T04:23:57.101Z,77.80
2022-08-05T04:26:20.952Z,77.68
2022-08-05T04:28:51.075Z,77.31
2022-08-05T04:31:21.892Z,77.45
2022-08-05T04:34:17.483Z,77.01
2022-08-05T04:36:49.816Z,76.62
2022-08-05T04:39:19.903Z,75.89
2022-08-05T04:41:51.487Z,75.73
2022-08-05T04:44:29.573Z,75.59
2022-08-05T04:47:09.052Z,75.24
2022-08-05T04:50:02.610Z,75.15
2022-08-05T04:52:33.431Z,75.02
2022-08-05T04:55:05.368Z,74.53
2022-08-05T04:57:53.992Z,74.80
2022-08-05T05:00:24.149Z,74.80
2022-08-05T05:02:53.889Z,74.62
2022-08-05T05:05:28.735Z,75.33
2022-08-05T05:08:02.844Z,74.53
2022-08-05T05:10:34.002Z,74.85
2022-08-05T05:13:04.972Z,75.25
2022-08-05T05:15:57.004Z,75.24
2022-08-05T05:18:31.158Z,74.29
2022-08-05T05:21:04.037Z,75.02
2022-08-05T05:24:02.286Z,75.05
2022-08-05T05:26:28.886Z,74.96
2022-08-05T05:29:14.467Z,74.62
2022-08-05T05:31:46.360Z,75.13
2022-08-05T05:34:18.990Z,75.13
2022-08-05T05:36:53.690Z,75.17
2022-08-05T05:39:23.171Z,74.60
2022-08-05T05:41:54.246Z,74.09
2022-08-05T05:44:36.528Z,73.59
2022-08-05T05:47:30.257Z,73.01
2022-08-05T05:50:01.615Z,72.15
2022-08-05T05:52:34.589Z,70.39
2022-08-05T05:55:13.201Z,67.84
2022-08-05T05:57:52.320Z,65.94
2022-08-05T06:00:27.575Z,64.36
2022-08-05T06:03:02.200Z,61.50
2022-08-05T06:05:32.008Z,60.87
2022-08-05T06:08:03.857Z,59.39
2022-08-05T06:10:34.506Z,57.86
2022-08-05T06:13:06.857Z,56.88
2022-08-05T06:16:30.546Z,55.06
2022-08-05T06:18:31.451Z,55.54
2022-08-05T06:21:02.052Z,54.62
2022-08-05T06:23:43.966Z,53.96
2022-08-05T06:26:21.583Z,52.14
2022-08-05T06:28:53.713Z,52.63
2022-08-05T06:31:32.051Z,51.39
2022-08-05T06:34:07.386Z,51.29
2022-08-05T06:36:57.380Z,50.50
2022-08-05T06:39:28.188Z,49.33
2022-08-05T06:41:59.347Z,48.21
2022-08-05T06:44:29.455Z,44.98
2022-08-05T06:47:02.318Z,46.88
2022-08-05T06:50:00.570Z,45.95
2022-08-05T06:53:54.229Z,44.46
2022-08-05T06:56:26.543Z,45.94
2022-08-05T06:58:56.668Z,45.63
2022-08-05T07:01:27.723Z,46.70
2022-08-05T07:04:03.273Z,46.09
2022-08-05T07:06:32.818Z,43.45
2022-08-05T07:09:04.640Z,45.87
2022-08-05T07:11:36.732Z,45.40
2022-08-05T07:14:29.207Z,43.89
2022-08-05T07:17:59.946Z,44.53
2022-08-05T07:20:31.550Z,44.04
2022-08-05T07:22:45.768Z,42.22
2022-08-05T07:25:54.392Z,43.88
2022-08-05T07:28:11.601Z,41.77
2022-08-05T07:30:50.334Z,42.30
2022-08-05T07:33:36.450Z,42.17
2022-08-05T07:36:20.342Z,42.97
2022-08-05T07:38:54.684Z,43.07
2022-08-05T07:42:08.364Z,42.98
2022-08-05T07:44:18.901Z,43.44
2022-08-05T07:46:51.259Z,40.82
2022-08-05T07:49:21.044Z,42.81
2022-08-05T07:51:54.230Z,41.65
2022-08-05T07:54:31.391Z,42.91
2022-08-05T07:57:17.661Z,44.06
2022-08-05T07:59:55.058Z,43.52
2022-08-05T08:02:31.176Z,41.77
2022-08-05T08:05:19.472Z,41.80
2022-08-05T08:08:00.077Z,41.68
2022-08-05T08:10:30.459Z,40.96
2022-08-05T08:13:01.732Z,42.90
2022-08-05T08:16:33.879Z,40.92
2022-08-05T08:18:21.275Z,40.21
2022-08-05T08:21:03.057Z,40.94
2022-08-05T08:24:01.970Z,41.32
2022-08-05T08:26:27.057Z,40.29
2022-08-05T08:29:09.698Z,41.69
2022-08-05T08:31:52.449Z,41.90
2022-08-05T08:34:30.855Z,41.19
2022-08-05T08:37:05.193Z,42.04
2022-08-05T08:39:37.369Z,42.42
2022-08-05T08:42:32.362Z,44.08
2022-08-05T08:45:23.786Z,43.55
2022-08-05T08:48:07.138Z,44.22
2022-08-05T08:51:22.427Z,42.01
2022-08-05T08:53:44.378Z,43.86
2022-08-05T08:56:15.022Z,43.78
2022-08-05T08:58:47.930Z,44.21
2022-08-05T09:01:20.797Z,42.98
2022-08-05T09:03:57.230Z,42.96
2022-08-05T09:06:30.199Z,41.72
2022-08-05T09:09:02.536Z,40.75
2022-08-05T09:11:51.025Z,40.33
2022-08-05T09:14:59.129Z,41.14
2022-08-05T09:17:40.052Z,40.16
2022-08-05T09:20:06.401Z,41.23
2022-08-05T09:23:09.458Z,41.32
2022-08-05T09:26:03.110Z,41.84
2022-08-05T09:28:31.550Z,38.74
2022-08-05T09:31:58.569Z,40.06
2022-08-05T09:34:01.525Z,40.54
2022-08-05T09:36:54.366Z,38.90
2022-08-05T09:39:27.758Z,39.88
2022-08-05T09:42:17.371Z,41.51
2022-08-05T09:44:57.468Z,39.96
2022-08-05T09:47:55.247Z,41.23
2022-08-05T09:53:59.175Z,39.67
2022-08-05T09:56:33.649Z,39.82
2022-08-05T09:59:05.488Z,39.91
2022-08-05T10:01:39.588Z,38.53
2022-08-05T10:04:12.961Z,37.18
2022-08-05T10:06:49.720Z,36.89
2022-08-05T10:09:30.569Z,36.21
2022-08-05T10:12:30.819Z,35.86
2022-08-05T10:15:20.314Z,36.35
2022-08-05T10:18:13.932Z,36.94
2022-08-05T10:20:48.746Z,38.53
2022-08-05T10:23:51.033Z,37.55
2022-08-05T10:26:15.004Z,36.96
2022-08-05T10:28:46.580Z,38.10
2022-08-05T10:32:53.353Z,37.79
2022-08-05T10:34:08.564Z,37.66
2022-08-05T10:36:39.832Z,39.40
2022-08-05T10:39:15.136Z,38.81
2022-08-05T10:42:02.959Z,39.39
2022-08-05T10:44:34.879Z,37.87
2022-08-05T10:47:26.645Z,37.23
2022-08-05T10:50:32.424Z,36.63
2022-08-05T10:53:01.754Z,37.47
2022-08-05T10:55:38.492Z,39.05
2022-08-05T10:58:23.758Z,37.55
2022-08-05T11:01:13.270Z,37.88
2022-08-05T11:04:07.146Z,36.98
2022-08-05T11:06:37.313Z,37.68
2022-08-05T11:09:24.408Z,37.00
2022-08-05T11:12:50.497Z,36.19
2022-08-05T11:16:00.960Z,35.24
2022-08-05T11:18:32.609Z,35.95
2022-08-05T11:21:11.238Z,35.59
2022-08-05T11:24:05.660Z,35.11
2022-08-05T11:26:49.419Z,35.24
2022-08-05T11:29:40.472Z,33.96
2022-08-05T11:32:31.501Z,34.79
2022-08-05T11:35:00.974Z,34.18
2022-08-05T11:38:28.626Z,33.91
2022-08-05T11:41:34.137Z,34.14
2022-08-05T11:44:05.782Z,36.22
2022-08-05T11:46:58.241Z,35.79
2022-08-05T11:49:34.147Z,37.15
2022-08-05T11:52:11.601Z,36.71
2022-08-05T11:54:43.514Z,36.13
2022-08-05T11:58:08.075Z,36.22
2022-08-05T12:00:29.049Z,36.38
2022-08-05T12:02:59.789Z,34.68
2022-08-05T12:05:36.158Z,35.16
2022-08-05T12:08:11.543Z,32.91
2022-08-05T12:10:45.459Z,33.72
2022-08-05T12:13:27.789Z,32.62
2022-08-05T12:16:15.313Z,34.31
2022-08-05T12:18:49.414Z,34.13
2022-08-05T12:21:30.130Z,34.32
2022-08-05T12:24:07.192Z,33.70
2022-08-05T12:26:39.174Z,33.20
2022-08-05T12:29:15.853Z,33.53
2022-08-05T12:31:53.794Z,32.74
2022-08-05T12:34:28.696Z,32.72
2022-08-05T12:37:03.423Z,34.03
2022-08-05T12:39:38.626Z,32.57
2022-08-05T12:42:14.767Z,33.06
2022-08-05T12:44:47.732Z,32.93
2022-08-05T12:47:30.692Z,34.16
2022-08-05T12:50:03.316Z,33.36
2022-08-05T12:53:55.686Z,32.81
2022-08-05T12:56:35.331Z,32.02
2022-08-05T12:59:20.799Z,32.11
2022-08-05T13:02:07.530Z,30.48
2022-08-05T13:04:41.689Z,30.33
2022-08-05T13:07:47.813Z,31.07
2022-08-05T13:10:19.745Z,31.67
2022-08-05T13:12:57.141Z,31.53
2022-08-05T13:15:35.887Z,31.33
2022-08-05T13:18:11.791Z,31.51
2022-08-05T13:20:50.117Z,33.01
2022-08-05T13:23:22.808Z,33.53
2022-08-05T13:26:00.991Z,33.68
2022-08-05T13:28:33.981Z,33.95
2022-08-05T13:31:14.289Z,33.59
2022-08-05T13:34:21.985Z,32.93
2022-08-05T13:36:34.720Z,32.64
2022-08-05T13:39:08.539Z,33.26
2022-08-05T13:41:56.413Z,33.03
2022-08-05T13:44:26.507Z,33.09
2022-08-05T13:47:02.298Z,32.66
2022-08-05T13:49:35.432Z,33.23
2022-08-05T13:52:13.709Z,32.55
2022-08-05T13:54:43.830Z,33.07
2022-08-05T13:57:25.559Z,33.10
2022-08-05T14:00:15.411Z,32.42
2022-08-05T14:02:46.980Z,33.61
2022-08-05T14:05:19.312Z,32.95
2022-08-05T14:08:00.801Z,32.27
2022-08-05T14:10:37.382Z,32.71
2022-08-05T14:13:08.619Z,33.38
2022-08-05T14:16:05.218Z,33.11
2022-08-05T14:18:28.147Z,32.25
2022-08-05T14:20:57.653Z,32.69
2022-08-05T14:23:36.285Z,33.24
2022-08-05T14:26:06.521Z,34.21
2022-08-05T14:28:37.359Z,33.46
2022-08-05T14:32:02.883Z,33.64
2022-08-05T14:34:12.597Z,34.15
2022-08-05T14:36:42.162Z,35.06
2022-08-05T14:39:23.226Z,34.63
2022-08-05T14:42:19.421Z,34.46
2022-08-05T14:44:46.008Z,35.16
2022-08-05T14:47:15.596Z,35.14
2022-08-05T14:49:59.096Z,35.64
2022-08-05T14:52:52.045Z,35.98
2022-08-05T14:55:20.713Z,36.62
2022-08-05T14:57:54.468Z,36.52
2022-08-05T15:00:29.328Z,36.84
2022-08-05T15:02:59.180Z,37.20
2022-08-05T15:05:29.769Z,37.46
2022-08-05T15:08:08.753Z,37.02
2022-08-05T15:10:46.049Z,37.12
2022-08-05T15:13:16.416Z,37.68
2022-08-05T15:15:54.099Z,37.91
2022-08-05T15:18:26.512Z,38.63
2022-08-05T15:20:56.078Z,39.00
2022-08-05T15:23:25.458Z,39.21
2022-08-05T15:25:58.548Z,39.37
2022-08-05T15:28:35.156Z,38.68
2022-08-05T15:31:13.911Z,38.80
2022-08-05T15:34:04.495Z,39.09
2022-08-05T15:36:33.932Z,39.65
2022-08-05T15:41:00.213Z,39.83
2022-08-05T15:41:57.702Z,39.95
2022-08-05T15:44:30.184Z,39.47
2022-08-05T15:47:04.577Z,40.02
2022-08-05T15:49:52.046Z,39.90
2022-08-05T15:53:53.927Z,40.23
2022-08-05T15:56:23.522Z,40.06
2022-08-05T15:58:53.708Z,40.39
2022-08-05T16:01:29.467Z,40.30
2022-08-05T16:04:10.279Z,40.62
2022-08-05T16:06:40.458Z,40.52
2022-08-05T16:09:11.434Z,40.77
2022-08-05T16:11:42.581Z,40.67
2022-08-05T16:14:17.299Z,41.08
2022-08-05T16:16:48.204Z,41.17
2022-08-05T16:19:19.006Z,41.48
2022-08-05T16:22:10.509Z,41.34
2022-08-05T16:24:51.938Z,41.42
2022-08-05T16:27:46.821Z,41.22
2022-08-05T16:30:25.964Z,41.68
2022-08-05T16:32:56.861Z,41.63
2022-08-05T16:35:28.286Z,41.96
2022-08-05T16:38:24.510Z,42.21
2022-08-05T16:40:59.879Z,42.21
2022-08-05T16:43:33.356Z,42.09
2022-08-05T16:46:13.072Z,42.03
2022-08-05T16:48:55.539Z,42.06
2022-08-05T16:51:25.304Z,42.37
2022-08-05T16:54:05.301Z,42.57
2022-08-05T16:56:42.411Z,42.68
2022-08-05T16:59:15.624Z,42.60
2022-08-05T17:01:54.623Z,42.95
2022-08-05T17:04:28.008Z,43.10
2022-08-05T17:07:01.501Z,43.72
2022-08-05T17:09:38.882Z,43.43
2022-08-05T17:12:50.248Z,43.80
2022-08-05T17:15:15.646Z,43.71
2022-08-05T17:17:54.481Z,43.87
2022-08-05T17:20:25.184Z,44.38
2022-08-05T17:22:58.709Z,44.36
2022-08-05T17:25:39.251Z,44.24
2022-08-05T17:28:15.594Z,43.80
2022-08-05T17:30:51.744Z,44.06
2022-08-05T17:33:22.090Z,44.32
2022-08-05T17:36:07.770Z,44.43
2022-08-05T17:38:40.379Z,44.43
2022-08-05T17:41:22.968Z,44.24
2022-08-05T17:44:01.051Z,44.07
2022-08-05T17:46:32.810Z,44.40
2022-08-05T17:49:02.329Z,43.95
2022-08-05T17:51:40.158Z,43.99
2022-08-05T17:54:10.658Z,44.47
2022-08-05T17:56:40.222Z,44.33
2022-08-05T17:59:11.610Z,44.44
2022-08-05T18:01:42.649Z,44.00
2022-08-05T18:04:21.437Z,44.63
2022-08-05T18:07:00.331Z,44.32
2022-08-05T18:09:58.752Z,44.52
2022-08-05T18:12:24.246Z,44.60
2022-08-05T18:14:55.600Z,44.69
2022-08-05T18:18:01.699Z,45.21
2022-08-05T18:20:15.631Z,45.21
2022-08-05T18:22:54.136Z,44.62
2022-08-05T18:25:25.197Z,44.75
2022-08-05T18:28:05.118Z,44.35
2022-08-05T18:30:39.166Z,44.69
2022-08-05T18:33:13.804Z,44.60
2022-08-05T18:36:00.696Z,44.93
2022-08-05T18:38:34.026Z,44.64
2022-08-05T18:41:58.227Z,45.14
2022-08-05T18:43:52.890Z,44.93
2022-08-05T18:46:26.054Z,45.31
2022-08-05T18:49:18.658Z,45.28
2022-08-05T18:53:53.820Z,45.79
2022-08-05T18:56:25.362Z,45.66
2022-08-05T18:59:01.043Z,45.53
2022-08-05T19:01:47.274Z,46.18
2022-08-05T19:04:23.977Z,46.36
2022-08-05T19:06:53.985Z,46.23
2022-08-05T19:09:25.601Z,46.54
2022-08-05T19:12:00.129Z,46.66
2022-08-05T19:14:44.832Z,47.11
2022-08-05T19:17:20.959Z,46.84
2022-08-05T19:19:51.612Z,47.37
2022-08-05T19:22:27.556Z,47.13
2022-08-05T19:25:02.633Z,48.01
2022-08-05T19:27:32.299Z,48.48
2022-08-05T19:30:03.597Z,47.91
2022-08-05T19:32:33.654Z,48.14
2022-08-05T19:35:05.870Z,48.67
2022-08-05T19:38:04.400Z,48.73
2022-08-05T19:40:28.358Z,48.83
2022-08-05T19:43:04.565Z,49.24
2022-08-05T19:45:36.964Z,49.21
2022-08-05T19:48:14.250Z,49.37
2022-08-05T19:50:44.964Z,49.68
2022-08-05T19:53:14.554Z,49.79
2022-08-05T19:56:14.202Z,49.37
2022-08-05T19:58:53.081Z,50.15
2022-08-05T20:01:28.578Z,50.47
2022-08-05T20:03:58.471Z,50.13
2022-08-05T20:06:29.530Z,50.13
2022-08-05T20:09:06.178Z,50.31
2022-08-05T20:11:48.157Z,50.49
2022-08-05T20:14:26.730Z,50.19
2022-08-05T20:16:58.772Z,50.46
2022-08-05T20:19:32.204Z,50.63
2022-08-05T20:22:05.930Z,50.15
2022-08-05T20:24:39.169Z,50.77
2022-08-05T20:27:11.138Z,50.19
2022-08-05T20:29:41.302Z,51.14
2022-08-05T20:32:22.060Z,50.78
2022-08-05T20:34:51.611Z,50.99
2022-08-05T20:38:04.559Z,51.65
2022-08-05T20:40:12.671Z,50.96
2022-08-05T20:42:43.866Z,51.46
2022-08-05T20:45:13.974Z,51.46
2022-08-05T20:47:43.887Z,51.54
2022-08-05T20:50:16.246Z,51.65
2022-08-05T20:52:47.594Z,51.78
2022-08-05T20:55:56.731Z,51.75
2022-08-05T20:58:08.378Z,51.75
2022-08-05T21:00:44.325Z,51.55
2022-08-05T21:03:24.137Z,51.63
2022-08-05T21:05:55.558Z,51.59
2022-08-05T21:08:26.652Z,51.16
2022-08-05T21:11:09.927Z,50.87
2022-08-05T21:13:47.990Z,51.61
2022-08-05T21:16:29.581Z,51.58
2022-08-05T21:19:01.445Z,51.49
2022-08-05T21:21:43.715Z,52.31
2022-08-05T21:24:20.928Z,51.86
2022-08-05T21:26:56.206Z,51.36
2022-08-05T21:29:32.135Z,51.84
2022-08-05T21:32:03.823Z,51.91
2022-08-05T21:34:35.554Z,52.17
2022-08-05T21:37:08.325Z,52.98
2022-08-05T21:39:40.345Z,53.69
2022-08-05T21:42:30.802Z,54.94
2022-08-05T21:45:01.689Z,55.75
2022-08-05T21:47:55.176Z,56.67
2022-08-05T21:53:59.651Z,57.29
2022-08-05T21:56:33.409Z,57.35
2022-08-05T21:59:08.081Z,57.77
2022-08-05T22:01:54.556Z,58.26
2022-08-05T22:04:25.344Z,59.08
2022-08-05T22:06:55.455Z,59.37
2022-08-05T22:09:46.173Z,59.67
2022-08-05T22:12:16.253Z,60.26
2022-08-05T22:14:47.070Z,60.19
2022-08-05T22:17:17.075Z,61.55
2022-08-05T22:20:02.998Z,61.59
2022-08-05T22:22:57.062Z,62.03
2022-08-05T22:26:10.682Z,62.91
2022-08-05T22:28:36.954Z,63.04
2022-08-05T22:31:08.016Z,63.26
2022-08-05T22:33:56.996Z,63.27
2022-08-05T22:36:29.030Z,63.54
2022-08-05T22:39:09.192Z,63.87
2022-08-05T22:42:10.231Z,64.16
2022-08-05T22:44:30.159Z,64.18
2022-08-05T22:46:59.611Z,64.74
2022-08-05T22:50:20.886Z,65.40
2022-08-05T22:52:30.695Z,66.24
2022-08-05T22:55:04.204Z,66.38
2022-08-05T22:57:36.563Z,66.46
2022-08-05T23:00:10.490Z,66.08
2022-08-05T23:02:48.274Z,66.18
2022-08-05T23:05:18.459Z,66.40
2022-08-05T23:07:49.468Z,66.42
2022-08-05T23:10:24.013Z,66.96
2022-08-05T23:12:56.374Z,67.00
2022-08-05T23:15:35.239Z,67.64
2022-08-05T23:18:11.703Z,67.19
2022-08-05T23:20:45.612Z,67.45
2022-08-05T23:23:15.097Z,67.70
2022-08-05T23:25:54.740Z,68.34
2022-08-05T23:28:29.468Z,68.20
2022-08-05T23:31:02.379Z,68.25
2022-08-05T23:34:05.322Z,68.90
2022-08-05T23:36:40.224Z,68.66
2022-08-05T23:39:17.564Z,68.91
2022-08-05T23:42:01.457Z,68.96
2022-08-05T23:44:33.513Z,69.78
2022-08-05T23:47:15.066Z,69.76
2022-08-05T23:49:45.893Z,70.32
2022-08-05T23:52:29.403Z,70.18
2022-08-05T23:55:05.484Z,70.50
2022-08-05T23:57:37.479Z,69.90
